Terminal Aerodrome Forecast
Issued by NWS

Home | Current Version | Previous Version | Text Only | Print | Product List | Glossary On
Versions: 1 2 3 4 5 6 7 8 9 10 11 12 13 14 15 16 17 18 19
000
FTUS46 KLOX 260530
TAFBUR
TAF
KBUR 260530Z 2606/2706 18005KT P6SM BKN035
     FM260800 15006KT P6SM -DZ BKN020 OVC035
     FM261500 16007KT P6SM SCT025 OVC040
     FM262000 19009KT P6SM OVC040
     FM270300 17005KT P6SM SCT025 BKN035=

USA.gov is the U.S. government's official web portal to all federal, state and local government web resources and services.